Bishop, CA (93514)

7:19 PM PST on December 10, 2016 (GMT -0800)
Valley View | | Change Station

Elev 4183 ft 37.39 °N, 118.42 °W | Updated 17 seconds ago

Partly Cloudy
Partly Cloudy
46.8 °F
Feels Like 47 °F
N
0.9
Wind Variable Wind from North
Gusts 2.5 mph

Today
High -- | Low -- °F
--% Chance of Precip.
Yesterday
High -- | Low -- °F
Precip. -- in
Pressure 29.94 in
Visibility 10.0 miles
Clouds Mostly Cloudy 10000 ft
Windchill 47 °F
Dew Point 31 °F
Humidity 54%
Rainfall 0.00 in
Snow Depth Not available.
6:57 AM 4:36 PM
Waxing Gibbous, 88% visible
METAR KBIH 110256Z AUTO 04006KT 10SM BKN100 07/M03 A2994 RMK AO2 SLP137 60000 T00671028 58004 TSNO
Pressure 29.94 in
Visibility 10.0 miles
Clouds Mostly Cloudy 10000 ft
Windchill 47 °F
Dew Point 31 °F
Humidity 54%
Rainfall 0.00 in
Snow Depth Not available.
6:57 AM 4:36 PM
Waxing Gibbous, 88% visible
METAR KBIH 110256Z AUTO 04006KT 10SM BKN100 07/M03 A2994 RMK AO2 SLP137 60000 T00671028 58004 TSNO

10-Day Weather Forecast

Almanac

Astronomy

Dec. 10, 2016 Rise Set
Actual Time
Civil Twilight
Nautical Twilight
Astronomical Twilight
Moon
Length of Visible Light
Length of Day
Tomorrow will be .
, % of the Moon is Illuminated

Today's Extremes

State Highs State Lows

Community

WunderPhotos

Upload Photos

1,956,699 photos uploaded!

WunderBlog® & News

Nearby

Air Quality

  Air Quality AQ Index Pollutant
Not available.

Snow Depth

Station Depth Elevation

Earthquake Activity

City Distance Mag. Time & Date
Minimum magnitude displayed is 2.5.

Coastal Water Temperatures

Place Temperature

Stations

Nearby Weather Stations

Station Location Temp. Windchill Dew Point Humidity Wind Precip. Elev Updated Type
                   

Watches & Warnings

There are currently no watches in effect.